sensor_id;sensor_type;location;lat;lon;timestamp;pressure;altitude;pressure_sealevel;temperature;humidity
50790;BME280;37287;47.554;7.844;2023-10-13T14:02:53;97473.53;;;27.31;30.30
50790;BME280;37287;47.554;7.844;2023-10-13T14:05:22;97463.19;;;27.31;30.71
50790;BME280;37287;47.554;7.844;2023-10-13T14:07:49;97464.69;;;27.32;30.22
50790;BME280;37287;47.554;7.844;2023-10-13T14:10:17;97457.41;;;27.35;30.00
50790;BME280;37287;47.554;7.844;2023-10-13T14:13:01;97459.38;;;27.28;29.70
50790;BME280;37287;47.554;7.844;2023-10-13T14:15:39;97457.06;;;27.21;30.55
50790;BME280;37287;47.554;7.844;2023-10-13T14:18:10;97448.75;;;27.21;31.19
50790;BME280;37287;47.554;7.844;2023-10-13T14:20:44;97449.25;;;27.25;30.49
50790;BME280;37287;47.554;7.844;2023-10-13T14:23:11;97446.47;;;27.25;30.35
50790;BME280;37287;47.554;7.844;2023-10-13T14:25:42;97441.19;;;27.27;30.42
50790;BME280;37287;47.554;7.844;2023-10-13T14:28:18;97447.00;;;27.29;29.72
50790;BME280;37287;47.554;7.844;2023-10-13T14:30:45;97449.25;;;27.25;29.44
50790;BME280;37287;47.554;7.844;2023-10-13T14:33:11;97447.25;;;27.20;29.18
50790;BME280;37287;47.554;7.844;2023-10-13T14:35:39;97438.09;;;27.14;29.71
50790;BME280;37287;47.554;7.844;2023-10-13T14:38:07;97439.88;;;27.17;27.98
50790;BME280;37287;47.554;7.844;2023-10-13T14:40:35;97445.22;;;27.21;27.03
50790;BME280;37287;47.554;7.844;2023-10-13T14:43:04;97449.75;;;27.18;26.06
50790;BME280;37287;47.554;7.844;2023-10-13T14:45:31;97466.72;;;27.26;25.22
50790;BME280;37287;47.554;7.844;2023-10-13T14:48:00;97461.38;;;27.22;24.87
50790;BME280;37287;47.554;7.844;2023-10-13T14:50:27;97460.59;;;27.16;24.89
50790;BME280;37287;47.554;7.844;2023-10-13T14:52:54;97443.13;;;27.10;24.80
50790;BME280;37287;47.554;7.844;2023-10-13T14:55:23;97451.72;;;27.06;24.34
50790;BME280;37287;47.554;7.844;2023-10-13T14:58:05;97446.88;;;27.01;23.81
50790;BME280;37287;47.554;7.844;2023-10-13T15:00:36;97450.69;;;27.04;22.96
50790;BME280;37287;47.554;7.844;2023-10-13T15:03:03;97457.25;;;27.01;22.66
50790;BME280;37287;47.554;7.844;2023-10-13T15:05:37;97449.41;;;26.99;22.24
50790;BME280;37287;47.554;7.844;2023-10-13T15:08:09;97450.63;;;26.92;22.21
50790;BME280;37287;47.554;7.844;2023-10-13T15:10:36;97448.03;;;26.77;22.49
50790;BME280;37287;47.554;7.844;2023-10-13T15:13:03;97437.19;;;26.80;22.06
50790;BME280;37287;47.554;7.844;2023-10-13T15:15:31;97443.97;;;26.73;21.93
50790;BME280;37287;47.554;7.844;2023-10-13T15:17:58;97434.63;;;26.76;21.57
50790;BME280;37287;47.554;7.844;2023-10-13T15:20:25;97434.31;;;26.68;21.49
50790;BME280;37287;47.554;7.844;2023-10-13T15:22:52;97427.22;;;26.62;21.55
50790;BME280;37287;47.554;7.844;2023-10-13T15:25:28;97433.69;;;26.47;22.31
50790;BME280;37287;47.554;7.844;2023-10-13T15:27:58;97435.41;;;26.39;22.39
50790;BME280;37287;47.554;7.844;2023-10-13T15:30:33;97413.16;;;26.33;22.48
50790;BME280;37287;47.554;7.844;2023-10-13T15:33:23;97407.28;;;26.25;22.79
50790;BME280;37287;47.554;7.844;2023-10-13T15:35:54;97405.75;;;26.19;22.87
50790;BME280;37287;47.554;7.844;2023-10-13T15:38:21;97411.00;;;26.17;22.89
50790;BME280;37287;47.554;7.844;2023-10-13T15:40:51;97407.16;;;26.08;23.05
50790;BME280;37287;47.554;7.844;2023-10-13T15:43:22;97402.00;;;25.96;23.25
50790;BME280;37287;47.554;7.844;2023-10-13T15:45:49;97394.84;;;25.83;23.90
50790;BME280;37287;47.554;7.844;2023-10-13T15:48:16;97398.13;;;25.82;24.15
50790;BME280;37287;47.554;7.844;2023-10-13T15:50:46;97391.25;;;25.77;24.28
50790;BME280;37287;47.554;7.844;2023-10-13T15:53:20;97389.41;;;25.68;24.57
50790;BME280;37287;47.554;7.844;2023-10-13T15:55:55;97379.53;;;25.62;24.58
50790;BME280;37287;47.554;7.844;2023-10-13T15:58:22;97378.97;;;25.57;24.85
50790;BME280;37287;47.554;7.844;2023-10-13T16:00:53;97376.44;;;25.54;24.99
50790;BME280;37287;47.554;7.844;2023-10-13T16:03:24;97370.59;;;25.52;25.14
50790;BME280;37287;47.554;7.844;2023-10-13T16:05:54;97376.34;;;25.43;25.46
50790;BME280;37287;47.554;7.844;2023-10-13T16:08:20;97363.94;;;25.38;25.33
50790;BME280;37287;47.554;7.844;2023-10-13T16:10:47;97363.81;;;25.27;25.59
50790;BME280;37287;47.554;7.844;2023-10-13T16:13:16;97368.00;;;25.22;25.87
50790;BME280;37287;47.554;7.844;2023-10-13T16:15:46;97364.94;;;25.14;26.19
50790;BME280;37287;47.554;7.844;2023-10-13T16:18:22;97373.38;;;25.05;26.44
50790;BME280;37287;47.554;7.844;2023-10-13T16:20:49;97370.75;;;24.96;26.64
50790;BME280;37287;47.554;7.844;2023-10-13T16:23:17;97376.91;;;24.85;26.83
50790;BME280;37287;47.554;7.844;2023-10-13T16:25:44;97375.53;;;24.75;27.25
50790;BME280;37287;47.554;7.844;2023-10-13T16:28:14;97360.03;;;24.62;27.64
50790;BME280;37287;47.554;7.844;2023-10-13T16:30:40;97377.13;;;24.61;27.60
50790;BME280;37287;47.554;7.844;2023-10-13T16:33:07;97381.25;;;24.50;27.59
50790;BME280;37287;47.554;7.844;2023-10-13T16:35:34;97380.13;;;24.42;27.59
50790;BME280;37287;47.554;7.844;2023-10-13T16:38:06;97383.78;;;24.33;27.81
50790;BME280;37287;47.554;7.844;2023-10-13T16:40:37;97378.91;;;24.28;27.95
50790;BME280;37287;47.554;7.844;2023-10-13T16:43:06;97380.34;;;24.24;27.99
50790;BME280;37287;47.554;7.844;2023-10-13T16:45:36;97386.78;;;24.15;28.15
50790;BME280;37287;47.554;7.844;2023-10-13T16:48:04;97392.88;;;24.04;28.57
50790;BME280;37287;47.554;7.844;2023-10-13T16:50:32;97388.97;;;23.96;28.77
50790;BME280;37287;47.554;7.844;2023-10-13T16:52:58;97397.19;;;23.90;29.08
50790;BME280;37287;47.554;7.844;2023-10-13T16:55:27;97394.28;;;23.84;28.98
50790;BME280;37287;47.554;7.844;2023-10-13T16:57:55;97394.09;;;23.73;29.46
50790;BME280;37287;47.554;7.844;2023-10-13T17:00:22;97388.00;;;23.69;29.64
50790;BME280;37287;47.554;7.844;2023-10-13T17:02:57;97388.84;;;23.60;29.63
50790;BME280;37287;47.554;7.844;2023-10-13T17:05:30;97386.47;;;23.53;29.62
50790;BME280;37287;47.554;7.844;2023-10-13T17:07:59;97387.31;;;23.44;29.99
50790;BME280;37287;47.554;7.844;2023-10-13T17:10:27;97395.22;;;23.37;30.46
50790;BME280;37287;47.554;7.844;2023-10-13T17:12:55;97397.59;;;23.29;30.49
50790;BME280;37287;47.554;7.844;2023-10-13T17:15:29;97399.94;;;23.21;30.66
50790;BME280;37287;47.554;7.844;2023-10-13T17:17:59;97400.47;;;23.10;30.53
50790;BME280;37287;47.554;7.844;2023-10-13T17:20:26;97388.97;;;23.12;30.75
50790;BME280;37287;47.554;7.844;2023-10-13T17:22:53;97397.59;;;23.05;30.94
50790;BME280;37287;47.554;7.844;2023-10-13T17:25:22;97395.97;;;22.98;31.03
50790;BME280;37287;47.554;7.844;2023-10-13T17:27:49;97394.31;;;22.91;31.25
50790;BME280;37287;47.554;7.844;2023-10-13T17:30:20;97392.19;;;22.86;31.35
50790;BME280;37287;47.554;7.844;2023-10-13T17:32:47;97392.06;;;22.80;31.80
50790;BME280;37287;47.554;7.844;2023-10-13T17:35:13;97385.41;;;22.72;31.63
50790;BME280;37287;47.554;7.844;2023-10-13T17:37:40;97383.75;;;22.65;32.17
50790;BME280;37287;47.554;7.844;2023-10-13T17:40:10;97382.69;;;22.63;32.15
50790;BME280;37287;47.554;7.844;2023-10-13T17:42:45;97378.47;;;22.53;31.63
50790;BME280;37287;47.554;7.844;2023-10-13T17:45:15;97381.38;;;22.49;31.93
50790;BME280;37287;47.554;7.844;2023-10-13T17:47:44;97381.91;;;22.38;32.49
50790;BME280;37287;47.554;7.844;2023-10-13T17:50:14;97379.44;;;22.31;32.65
50790;BME280;37287;47.554;7.844;2023-10-13T17:52:45;97388.41;;;22.16;33.06
50790;BME280;37287;47.554;7.844;2023-10-13T17:55:14;97381.69;;;22.08;33.20
50790;BME280;37287;47.554;7.844;2023-10-13T17:57:43;97385.38;;;22.05;33.58
50790;BME280;37287;47.554;7.844;2023-10-13T18:00:14;97394.59;;;22.02;33.82
50790;BME280;37287;47.554;7.844;2023-10-13T18:02:58;97397.38;;;21.93;33.92
50790;BME280;37287;47.554;7.844;2023-10-13T18:05:32;97396.19;;;21.85;33.63
50790;BME280;37287;47.554;7.844;2023-10-13T18:08:03;97400.03;;;21.69;33.94
50790;BME280;37287;47.554;7.844;2023-10-13T18:10:29;97412.44;;;21.45;34.57
50790;BME280;37287;47.554;7.844;2023-10-13T18:12:56;97409.38;;;21.34;34.86
50790;BME280;37287;47.554;7.844;2023-10-13T18:15:23;97416.88;;;21.24;34.92
50790;BME280;37287;47.554;7.844;2023-10-13T18:17:52;97415.34;;;21.14;34.74
50790;BME280;37287;47.554;7.844;2023-10-13T18:20:22;97411.81;;;20.95;35.35
50790;BME280;37287;47.554;7.844;2023-10-13T18:22:52;97405.22;;;20.83;36.26
50790;BME280;37287;47.554;7.844;2023-10-13T18:25:21;97399.41;;;20.72;35.87
50790;BME280;37287;47.554;7.844;2023-10-13T18:27:50;97394.25;;;20.42;36.67
50790;BME280;37287;47.554;7.844;2023-10-13T18:30:19;97390.16;;;20.06;37.61
50790;BME280;37287;47.554;7.844;2023-10-13T18:32:48;97401.63;;;19.83;37.90
50790;BME280;37287;47.554;7.844;2023-10-13T18:35:16;97399.66;;;19.61;39.16
50790;BME280;37287;47.554;7.844;2023-10-13T18:37:45;97381.81;;;19.44;39.38
50790;BME280;37287;47.554;7.844;2023-10-13T18:40:12;97383.53;;;19.28;39.77
50790;BME280;37287;47.554;7.844;2023-10-13T18:42:44;97387.44;;;19.18;40.92
50790;BME280;37287;47.554;7.844;2023-10-13T18:45:20;97387.34;;;19.08;40.42
50790;BME280;37287;47.554;7.844;2023-10-13T18:47:49;97378.38;;;19.08;39.91
50790;BME280;37287;47.554;7.844;2023-10-13T18:50:22;97377.84;;;19.00;40.00
50790;BME280;37287;47.554;7.844;2023-10-13T18:52:53;97375.13;;;19.00;40.11
50790;BME280;37287;47.554;7.844;2023-10-13T18:55:20;97375.22;;;18.97;39.95
50790;BME280;37287;47.554;7.844;2023-10-13T18:57:47;97380.84;;;18.93;40.11
50790;BME280;37287;47.554;7.844;2023-10-13T19:00:15;97381.47;;;18.97;39.73
50790;BME280;37287;47.554;7.844;2023-10-13T19:02:49;97373.69;;;18.96;39.70
50790;BME280;37287;47.554;7.844;2023-10-13T19:05:20;97377.53;;;18.98;39.75
50790;BME280;37287;47.554;7.844;2023-10-13T19:07:49;97376.56;;;18.92;39.97
50790;BME280;37287;47.554;7.844;2023-10-13T19:10:17;97378.41;;;18.95;40.18
50790;BME280;37287;47.554;7.844;2023-10-13T19:12:46;97378.09;;;18.93;39.97
50790;BME280;37287;47.554;7.844;2023-10-13T19:15:17;97373.94;;;18.76;40.57
50790;BME280;37287;47.554;7.844;2023-10-13T19:17:43;97378.13;;;18.67;40.66
50790;BME280;37287;47.554;7.844;2023-10-13T19:20:10;97376.28;;;18.64;40.38
50790;BME280;37287;47.554;7.844;2023-10-13T19:22:45;97372.19;;;18.69;40.30
50790;BME280;37287;47.554;7.844;2023-10-13T19:25:19;97377.44;;;18.76;39.95
50790;BME280;37287;47.554;7.844;2023-10-13T19:27:46;97379.31;;;18.79;39.90
50790;BME280;37287;47.554;7.844;2023-10-13T19:30:14;97375.34;;;18.80;39.94
50790;BME280;37287;47.554;7.844;2023-10-13T19:32:47;97374.28;;;18.78;39.89
50790;BME280;37287;47.554;7.844;2023-10-13T19:35:18;97374.69;;;18.76;39.92
50790;BME280;37287;47.554;7.844;2023-10-13T19:37:48;97374.69;;;18.76;40.06
50790;BME280;37287;47.554;7.844;2023-10-13T19:40:16;97371.34;;;18.72;40.34
50790;BME280;37287;47.554;7.844;2023-10-13T19:42:43;97373.97;;;18.63;41.20
50790;BME280;37287;47.554;7.844;2023-10-13T19:45:10;97370.34;;;18.66;40.55
50790;BME280;37287;47.554;7.844;2023-10-13T19:47:40;97373.88;;;18.66;40.96
50790;BME280;37287;47.554;7.844;2023-10-13T19:50:08;97378.25;;;18.64;41.66
50790;BME280;37287;47.554;7.844;2023-10-13T19:52:40;97369.59;;;18.65;41.94
50790;BME280;37287;47.554;7.844;2023-10-13T19:55:10;97373.22;;;18.62;42.07
50790;BME280;37287;47.554;7.844;2023-10-13T19:57:46;97378.81;;;18.59;42.66
50790;BME280;37287;47.554;7.844;2023-10-13T20:00:19;97384.41;;;18.55;42.36
50790;BME280;37287;47.554;7.844;2023-10-13T20:02:47;97387.38;;;18.35;42.44
50790;BME280;37287;47.554;7.844;2023-10-13T20:05:19;97376.31;;;18.26;42.98
50790;BME280;37287;47.554;7.844;2023-10-13T20:07:55;97377.09;;;18.13;42.79
50790;BME280;37287;47.554;7.844;2023-10-13T20:10:22;97388.81;;;18.14;43.06
50790;BME280;37287;47.554;7.844;2023-10-13T20:12:49;97371.84;;;18.06;43.72
50790;BME280;37287;47.554;7.844;2023-10-13T20:15:16;97379.81;;;18.00;43.11
50790;BME280;37287;47.554;7.844;2023-10-13T20:17:43;97385.31;;;18.00;43.21
50790;BME280;37287;47.554;7.844;2023-10-13T20:20:10;97378.63;;;18.01;43.51
50790;BME280;37287;47.554;7.844;2023-10-13T20:22:44;97373.13;;;17.88;43.64
50790;BME280;37287;47.554;7.844;2023-10-13T20:25:10;97383.28;;;17.88;43.71
50790;BME280;37287;47.554;7.844;2023-10-13T20:27:43;97362.25;;;17.85;43.78
50790;BME280;37287;47.554;7.844;2023-10-13T20:30:11;97362.56;;;17.74;44.30
50790;BME280;37287;47.554;7.844;2023-10-13T20:32:41;97366.09;;;17.75;44.26
50790;BME280;37287;47.554;7.844;2023-10-13T20:35:08;97364.22;;;17.72;44.12
50790;BME280;37287;47.554;7.844;2023-10-13T20:37:36;97368.81;;;17.75;44.25
50790;BME280;37287;47.554;7.844;2023-10-13T20:40:03;97369.50;;;17.79;44.39
50790;BME280;37287;47.554;7.844;2023-10-13T20:42:49;97363.13;;;17.82;44.65
50790;BME280;37287;47.554;7.844;2023-10-13T20:45:17;97366.19;;;17.84;44.98
50790;BME280;37287;47.554;7.844;2023-10-13T20:47:51;97373.22;;;17.85;45.00
50790;BME280;37287;47.554;7.844;2023-10-13T20:50:19;97363.81;;;17.86;45.59
50790;BME280;37287;47.554;7.844;2023-10-13T20:52:47;97377.50;;;17.86;45.56
50790;BME280;37287;47.554;7.844;2023-10-13T20:55:19;97379.34;;;17.76;45.16
50790;BME280;37287;47.554;7.844;2023-10-13T20:57:46;97373.94;;;17.73;45.43
50790;BME280;37287;47.554;7.844;2023-10-13T21:00:17;97378.66;;;17.72;45.71
50790;BME280;37287;47.554;7.844;2023-10-13T21:02:53;97375.81;;;17.76;46.42
50790;BME280;37287;47.554;7.844;2023-10-13T21:05:21;97381.06;;;17.70;46.47
50790;BME280;37287;47.554;7.844;2023-10-13T21:07:54;97376.47;;;17.67;46.80
50790;BME280;37287;47.554;7.844;2023-10-13T21:10:22;97376.03;;;17.68;47.48
50790;BME280;37287;47.554;7.844;2023-10-13T21:12:51;97393.00;;;17.63;47.95
50790;BME280;37287;47.554;7.844;2023-10-13T21:15:18;97389.59;;;17.59;48.37
50790;BME280;37287;47.554;7.844;2023-10-13T21:17:54;97393.53;;;17.58;48.26
50790;BME280;37287;47.554;7.844;2023-10-13T21:20:21;97397.66;;;17.50;48.46
50790;BME280;37287;47.554;7.844;2023-10-13T21:22:49;97403.81;;;17.54;49.90
50790;BME280;37287;47.554;7.844;2023-10-13T21:25:26;97400.41;;;17.50;48.62
50790;BME280;37287;47.554;7.844;2023-10-13T21:27:57;97413.97;;;17.41;48.72
50790;BME280;37287;47.554;7.844;2023-10-13T21:30:31;97405.59;;;17.31;48.58
50790;BME280;37287;47.554;7.844;2023-10-13T21:33:02;97408.53;;;17.24;48.05
50790;BME280;37287;47.554;7.844;2023-10-13T21:35:32;97409.28;;;17.25;49.35
50790;BME280;37287;47.554;7.844;2023-10-13T21:38:01;97410.78;;;17.13;49.83
50790;BME280;37287;47.554;7.844;2023-10-13T21:40:29;97398.28;;;17.12;49.76
50790;BME280;37287;47.554;7.844;2023-10-13T21:42:58;97403.91;;;17.21;48.99
50790;BME280;37287;47.554;7.844;2023-10-13T21:45:29;97398.22;;;17.45;48.06
50790;BME280;37287;47.554;7.844;2023-10-13T21:47:56;97398.53;;;17.47;48.52
50790;BME280;37287;47.554;7.844;2023-10-13T21:50:22;97397.66;;;17.50;48.73
50790;BME280;37287;47.554;7.844;2023-10-13T21:52:53;97399.88;;;17.55;48.13
50790;BME280;37287;47.554;7.844;2023-10-13T21:55:19;97399.75;;;17.59;48.08
50790;BME280;37287;47.554;7.844;2023-10-13T21:57:50;97405.16;;;17.62;49.03
50790;BME280;37287;47.554;7.844;2023-10-13T22:00:20;97398.38;;;17.67;47.79
50790;BME280;37287;47.554;7.844;2023-10-13T22:02:53;97400.56;;;17.72;47.83
50790;BME280;37287;47.554;7.844;2023-10-13T22:05:25;97399.25;;;17.77;48.42
50790;BME280;37287;47.554;7.844;2023-10-13T22:07:51;97402.34;;;17.79;48.96
50790;BME280;37287;47.554;7.844;2023-10-13T22:10:18;97398.38;;;17.80;48.94
50790;BME280;37287;47.554;7.844;2023-10-13T22:12:47;97397.53;;;17.83;48.90
50790;BME280;37287;47.554;7.844;2023-10-13T22:15:15;97395.88;;;17.85;48.59
50790;BME280;37287;47.554;7.844;2023-10-13T22:17:45;97397.31;;;17.90;48.70
50790;BME280;37287;47.554;7.844;2023-10-13T22:20:17;97396.47;;;17.93;49.23
50790;BME280;37287;47.554;7.844;2023-10-13T22:22:50;97401.06;;;17.96;48.73
50790;BME280;37287;47.554;7.844;2023-10-13T22:25:21;97407.22;;;18.00;48.60
50790;BME280;37287;47.554;7.844;2023-10-13T22:27:48;97402.50;;;18.01;49.14
50790;BME280;37287;47.554;7.844;2023-10-13T22:30:16;97409.50;;;18.02;49.38
50790;BME280;37287;47.554;7.844;2023-10-13T22:32:51;97411.81;;;18.03;50.03
50790;BME280;37287;47.554;7.844;2023-10-13T22:35:20;97414.56;;;18.03;49.84
50790;BME280;37287;47.554;7.844;2023-10-13T22:37:49;97407.09;;;18.04;50.55
50790;BME280;37287;47.554;7.844;2023-10-13T22:40:21;97414.91;;;18.06;51.23
50790;BME280;37287;47.554;7.844;2023-10-13T22:42:48;97411.06;;;18.03;51.10
50790;BME280;37287;47.554;7.844;2023-10-13T22:45:17;97421.56;;;18.04;52.08
50790;BME280;37287;47.554;7.844;2023-10-13T22:47:53;97416.53;;;18.03;51.53
50790;BME280;37287;47.554;7.844;2023-10-13T22:50:21;97410.63;;;18.04;51.63
50790;BME280;37287;47.554;7.844;2023-10-13T22:52:48;97407.88;;;18.04;52.25
50790;BME280;37287;47.554;7.844;2023-10-13T22:55:15;97415.75;;;18.02;51.49
50790;BME280;37287;47.554;7.844;2023-10-13T22:57:49;97406.34;;;18.03;50.43
50790;BME280;37287;47.554;7.844;2023-10-13T23:00:18;97412.56;;;18.04;50.13
50790;BME280;37287;47.554;7.844;2023-10-13T23:02:46;97398.47;;;18.06;50.85
50790;BME280;37287;47.554;7.844;2023-10-13T23:05:18;97398.78;;;18.08;51.20
50790;BME280;37287;47.554;7.844;2023-10-13T23:07:58;97396.81;;;18.08;50.88
50790;BME280;37287;47.554;7.844;2023-10-13T23:10:31;97395.16;;;18.11;51.41
50790;BME280;37287;47.554;7.844;2023-10-13T23:13:14;97393.97;;;18.12;51.69
50790;BME280;37287;47.554;7.844;2023-10-13T23:15:49;97399.75;;;18.14;52.29
50790;BME280;37287;47.554;7.844;2023-10-13T23:18:22;97397.81;;;18.14;52.42
50790;BME280;37287;47.554;7.844;2023-10-13T23:20:50;97405.25;;;18.14;52.23
50790;BME280;37287;47.554;7.844;2023-10-13T23:23:17;97398.25;;;18.13;52.79
50790;BME280;37287;47.554;7.844;2023-10-13T23:25:44;97397.47;;;18.12;53.39
50790;BME280;37287;47.554;7.844;2023-10-13T23:28:11;97404.91;;;18.12;53.49
50790;BME280;37287;47.554;7.844;2023-10-13T23:30:58;97404.91;;;18.12;53.81
50790;BME280;37287;47.554;7.844;2023-10-13T23:33:30;97409.19;;;18.13;54.01
50790;BME280;37287;47.554;7.844;2023-10-13T23:35:57;97410.72;;;18.14;54.02
50790;BME280;37287;47.554;7.844;2023-10-13T23:38:23;97409.53;;;18.15;54.05
50790;BME280;37287;47.554;7.844;2023-10-13T23:40:54;97406.13;;;18.11;54.97
50790;BME280;37287;47.554;7.844;2023-10-13T23:43:22;97409.31;;;18.09;54.29
50790;BME280;37287;47.554;7.844;2023-10-13T23:45:55;97410.84;;;18.10;54.73
50790;BME280;37287;47.554;7.844;2023-10-13T23:48:28;97414.34;;;18.11;54.84
50790;BME280;37287;47.554;7.844;2023-10-13T23:51:01;97409.19;;;18.13;55.03
50790;BME280;37287;47.554;7.844;2023-10-13T23:53:28;97416.63;;;18.12;54.13
50790;BME280;37287;47.554;7.844;2023-10-13T23:56:03;97419.50;;;18.09;54.86
50790;BME280;37287;47.554;7.844;2023-10-13T23:58:46;97417.97;;;18.08;55.83
